sensor_id;sensor_type;location;lat;lon;timestamp;P1;durP1;ratioP1;P2;durP2;ratioP2
37449;SDS011;23309;52.582;13.406;2022-10-17T00:01:52;8.63;;;6.90;;
37449;SDS011;23309;52.582;13.406;2022-10-17T00:04:18;8.40;;;6.63;;
37449;SDS011;23309;52.582;13.406;2022-10-17T00:06:44;8.30;;;6.50;;
37449;SDS011;23309;52.582;13.406;2022-10-17T00:09:11;8.70;;;6.00;;
37449;SDS011;23309;52.582;13.406;2022-10-17T00:11:37;9.00;;;6.50;;
37449;SDS011;23309;52.582;13.406;2022-10-17T00:14:06;8.70;;;6.07;;
37449;SDS011;23309;52.582;13.406;2022-10-17T00:16:34;8.53;;;6.10;;
37449;SDS011;23309;52.582;13.406;2022-10-17T00:19:01;15.47;;;6.80;;
37449;SDS011;23309;52.582;13.406;2022-10-17T00:21:28;9.93;;;6.43;;
37449;SDS011;23309;52.582;13.406;2022-10-17T00:23:54;10.00;;;6.70;;
37449;SDS011;23309;52.582;13.406;2022-10-17T00:26:21;8.40;;;6.33;;
37449;SDS011;23309;52.582;13.406;2022-10-17T00:28:47;9.00;;;6.53;;
37449;SDS011;23309;52.582;13.406;2022-10-17T00:31:19;7.63;;;5.83;;
37449;SDS011;23309;52.582;13.406;2022-10-17T00:33:46;7.57;;;6.00;;
37449;SDS011;23309;52.582;13.406;2022-10-17T00:36:14;7.80;;;5.90;;
37449;SDS011;23309;52.582;13.406;2022-10-17T00:38:43;14.57;;;6.00;;
37449;SDS011;23309;52.582;13.406;2022-10-17T00:41:12;8.10;;;6.13;;
37449;SDS011;23309;52.582;13.406;2022-10-17T00:43:48;9.30;;;6.10;;
37449;SDS011;23309;52.582;13.406;2022-10-17T00:46:19;7.23;;;5.50;;
37449;SDS011;23309;52.582;13.406;2022-10-17T00:48:47;10.77;;;6.20;;
37449;SDS011;23309;52.582;13.406;2022-10-17T00:51:16;8.90;;;6.00;;
37449;SDS011;23309;52.582;13.406;2022-10-17T00:53:47;6.83;;;4.90;;
37449;SDS011;23309;52.582;13.406;2022-10-17T00:56:13;8.47;;;5.70;;
37449;SDS011;23309;52.582;13.406;2022-10-17T00:58:40;10.33;;;5.33;;
37449;SDS011;23309;52.582;13.406;2022-10-17T01:01:06;6.10;;;4.60;;
37449;SDS011;23309;52.582;13.406;2022-10-17T01:03:35;8.43;;;5.37;;
37449;SDS011;23309;52.582;13.406;2022-10-17T01:06:02;7.73;;;5.10;;
37449;SDS011;23309;52.582;13.406;2022-10-17T01:08:28;6.43;;;5.20;;
37449;SDS011;23309;52.582;13.406;2022-10-17T01:10:57;6.83;;;5.07;;
37449;SDS011;23309;52.582;13.406;2022-10-17T01:13:36;8.97;;;5.20;;
37449;SDS011;23309;52.582;13.406;2022-10-17T01:16:07;6.00;;;4.53;;
37449;SDS011;23309;52.582;13.406;2022-10-17T01:18:47;5.30;;;4.43;;
37449;SDS011;23309;52.582;13.406;2022-10-17T01:21:25;6.87;;;4.63;;
37449;SDS011;23309;52.582;13.406;2022-10-17T01:24:07;6.43;;;4.47;;
37449;SDS011;23309;52.582;13.406;2022-10-17T01:27:11;11.20;;;4.20;;
37449;SDS011;23309;52.582;13.406;2022-10-17T01:30:17;7.13;;;4.50;;
37449;SDS011;23309;52.582;13.406;2022-10-17T01:33:37;4.93;;;4.43;;
37449;SDS011;23309;52.582;13.406;2022-10-17T01:36:23;5.30;;;4.80;;
37449;SDS011;23309;52.582;13.406;2022-10-17T01:39:02;5.30;;;4.80;;
37449;SDS011;23309;52.582;13.406;2022-10-17T01:41:39;8.33;;;4.57;;
37449;SDS011;23309;52.582;13.406;2022-10-17T01:44:12;7.30;;;4.20;;
37449;SDS011;23309;52.582;13.406;2022-10-17T01:46:47;6.20;;;4.40;;
37449;SDS011;23309;52.582;13.406;2022-10-17T01:49:16;5.57;;;4.60;;
37449;SDS011;23309;52.582;13.406;2022-10-17T01:51:50;6.27;;;5.00;;
37449;SDS011;23309;52.582;13.406;2022-10-17T01:54:22;4.73;;;4.10;;
37449;SDS011;23309;52.582;13.406;2022-10-17T01:56:53;5.63;;;4.23;;
37449;SDS011;23309;52.582;13.406;2022-10-17T01:59:23;8.00;;;4.57;;
37449;SDS011;23309;52.582;13.406;2022-10-17T02:01:56;4.60;;;4.10;;
37449;SDS011;23309;52.582;13.406;2022-10-17T02:04:23;6.20;;;4.50;;
37449;SDS011;23309;52.582;13.406;2022-10-17T02:06:50;5.13;;;4.20;;
37449;SDS011;23309;52.582;13.406;2022-10-17T02:09:17;5.67;;;4.43;;
37449;SDS011;23309;52.582;13.406;2022-10-17T02:12:09;5.57;;;4.17;;
37449;SDS011;23309;52.582;13.406;2022-10-17T02:15:09;8.73;;;4.37;;
37449;SDS011;23309;52.582;13.406;2022-10-17T02:18:04;4.43;;;4.03;;
37449;SDS011;23309;52.582;13.406;2022-10-17T02:20:44;5.20;;;3.70;;
37449;SDS011;23309;52.582;13.406;2022-10-17T02:23:19;4.27;;;3.40;;
37449;SDS011;23309;52.582;13.406;2022-10-17T02:25:53;4.43;;;3.50;;
37449;SDS011;23309;52.582;13.406;2022-10-17T02:28:29;8.53;;;4.03;;
37449;SDS011;23309;52.582;13.406;2022-10-17T02:31:02;4.43;;;3.63;;
37449;SDS011;23309;52.582;13.406;2022-10-17T02:33:36;4.70;;;4.30;;
37449;SDS011;23309;52.582;13.406;2022-10-17T02:36:09;5.30;;;3.50;;
37449;SDS011;23309;52.582;13.406;2022-10-17T02:38:46;6.63;;;3.80;;
37449;SDS011;23309;52.582;13.406;2022-10-17T02:41:15;9.70;;;4.47;;
37449;SDS011;23309;52.582;13.406;2022-10-17T02:43:44;5.13;;;3.70;;
37449;SDS011;23309;52.582;13.406;2022-10-17T02:46:12;4.83;;;3.67;;
37449;SDS011;23309;52.582;13.406;2022-10-17T02:48:43;6.67;;;3.60;;
37449;SDS011;23309;52.582;13.406;2022-10-17T02:51:15;4.20;;;3.80;;
37449;SDS011;23309;52.582;13.406;2022-10-17T02:53:53;4.60;;;3.77;;
37449;SDS011;23309;52.582;13.406;2022-10-17T02:56:29;4.90;;;4.00;;
37449;SDS011;23309;52.582;13.406;2022-10-17T02:59:01;3.33;;;3.03;;
37449;SDS011;23309;52.582;13.406;2022-10-17T03:01:30;4.90;;;3.60;;
37449;SDS011;23309;52.582;13.406;2022-10-17T03:04:07;3.93;;;3.53;;
37449;SDS011;23309;52.582;13.406;2022-10-17T03:06:36;5.73;;;3.50;;
37449;SDS011;23309;52.582;13.406;2022-10-17T03:09:02;3.73;;;3.43;;
37449;SDS011;23309;52.582;13.406;2022-10-17T03:11:28;4.10;;;3.70;;
37449;SDS011;23309;52.582;13.406;2022-10-17T03:13:54;5.50;;;3.60;;
37449;SDS011;23309;52.582;13.406;2022-10-17T03:16:21;4.30;;;3.63;;
37449;SDS011;23309;52.582;13.406;2022-10-17T03:18:47;6.37;;;3.80;;
37449;SDS011;23309;52.582;13.406;2022-10-17T03:21:15;6.90;;;3.57;;
37449;SDS011;23309;52.582;13.406;2022-10-17T03:23:42;7.30;;;4.07;;
37449;SDS011;23309;52.582;13.406;2022-10-17T03:26:08;5.93;;;3.80;;
37449;SDS011;23309;52.582;13.406;2022-10-17T03:28:35;4.40;;;3.57;;
37449;SDS011;23309;52.582;13.406;2022-10-17T03:31:05;3.17;;;2.87;;
37449;SDS011;23309;52.582;13.406;2022-10-17T03:33:32;5.07;;;3.10;;
37449;SDS011;23309;52.582;13.406;2022-10-17T03:35:58;3.73;;;3.30;;
37449;SDS011;23309;52.582;13.406;2022-10-17T03:38:27;3.47;;;3.17;;
37449;SDS011;23309;52.582;13.406;2022-10-17T03:40:56;3.23;;;3.00;;
37449;SDS011;23309;52.582;13.406;2022-10-17T03:43:22;3.30;;;3.00;;
37449;SDS011;23309;52.582;13.406;2022-10-17T03:45:48;5.70;;;3.10;;
37449;SDS011;23309;52.582;13.406;2022-10-17T03:48:14;4.07;;;3.20;;
37449;SDS011;23309;52.582;13.406;2022-10-17T03:50:40;6.27;;;3.20;;
37449;SDS011;23309;52.582;13.406;2022-10-17T03:53:06;4.53;;;2.80;;
37449;SDS011;23309;52.582;13.406;2022-10-17T03:55:35;3.90;;;2.93;;
37449;SDS011;23309;52.582;13.406;2022-10-17T03:58:01;4.37;;;3.30;;
37449;SDS011;23309;52.582;13.406;2022-10-17T04:00:27;3.40;;;3.10;;
37449;SDS011;23309;52.582;13.406;2022-10-17T04:02:53;3.73;;;2.90;;
37449;SDS011;23309;52.582;13.406;2022-10-17T04:05:19;3.60;;;3.30;;
37449;SDS011;23309;52.582;13.406;2022-10-17T04:07:45;3.07;;;2.80;;
37449;SDS011;23309;52.582;13.406;2022-10-17T04:10:13;3.10;;;2.80;;
37449;SDS011;23309;52.582;13.406;2022-10-17T04:12:42;5.60;;;2.80;;
37449;SDS011;23309;52.582;13.406;2022-10-17T04:15:09;3.57;;;3.10;;
37449;SDS011;23309;52.582;13.406;2022-10-17T04:17:36;3.30;;;3.00;;
37449;SDS011;23309;52.582;13.406;2022-10-17T04:20:02;3.37;;;3.00;;
37449;SDS011;23309;52.582;13.406;2022-10-17T04:22:29;3.47;;;3.17;;
37449;SDS011;23309;52.582;13.406;2022-10-17T04:24:55;3.40;;;3.10;;
37449;SDS011;23309;52.582;13.406;2022-10-17T04:27:21;3.37;;;3.07;;
37449;SDS011;23309;52.582;13.406;2022-10-17T04:29:50;2.97;;;2.77;;
37449;SDS011;23309;52.582;13.406;2022-10-17T04:32:16;4.73;;;3.33;;
37449;SDS011;23309;52.582;13.406;2022-10-17T04:34:42;3.53;;;3.23;;
37449;SDS011;23309;52.582;13.406;2022-10-17T04:37:08;3.57;;;3.27;;
37449;SDS011;23309;52.582;13.406;2022-10-17T04:39:34;4.53;;;2.87;;
37449;SDS011;23309;52.582;13.406;2022-10-17T04:42:00;3.40;;;3.10;;
37449;SDS011;23309;52.582;13.406;2022-10-17T04:44:26;5.10;;;3.10;;
37449;SDS011;23309;52.582;13.406;2022-10-17T04:46:55;3.47;;;3.17;;
37449;SDS011;23309;52.582;13.406;2022-10-17T04:49:21;4.90;;;3.60;;
37449;SDS011;23309;52.582;13.406;2022-10-17T04:51:47;3.97;;;3.47;;
37449;SDS011;23309;52.582;13.406;2022-10-17T04:54:14;4.13;;;3.30;;
37449;SDS011;23309;52.582;13.406;2022-10-17T04:56:40;4.37;;;3.40;;
37449;SDS011;23309;52.582;13.406;2022-10-17T04:59:06;5.30;;;3.33;;
37449;SDS011;23309;52.582;13.406;2022-10-17T05:01:32;3.20;;;3.00;;
37449;SDS011;23309;52.582;13.406;2022-10-17T05:04:01;3.83;;;3.43;;
37449;SDS011;23309;52.582;13.406;2022-10-17T05:06:27;9.70;;;3.60;;
37449;SDS011;23309;52.582;13.406;2022-10-17T05:08:53;3.63;;;3.33;;
37449;SDS011;23309;52.582;13.406;2022-10-17T05:11:20;3.80;;;3.50;;
37449;SDS011;23309;52.582;13.406;2022-10-17T05:13:48;3.60;;;3.20;;
37449;SDS011;23309;52.582;13.406;2022-10-17T05:16:15;4.93;;;3.60;;
37449;SDS011;23309;52.582;13.406;2022-10-17T05:18:42;4.63;;;3.20;;
37449;SDS011;23309;52.582;13.406;2022-10-17T05:21:10;5.07;;;3.30;;
37449;SDS011;23309;52.582;13.406;2022-10-17T05:23:36;4.10;;;3.27;;
37449;SDS011;23309;52.582;13.406;2022-10-17T05:26:02;3.43;;;3.13;;
37449;SDS011;23309;52.582;13.406;2022-10-17T05:28:29;3.70;;;3.33;;
37449;SDS011;23309;52.582;13.406;2022-10-17T05:30:55;4.60;;;3.30;;
37449;SDS011;23309;52.582;13.406;2022-10-17T05:33:21;4.57;;;4.00;;
37449;SDS011;23309;52.582;13.406;2022-10-17T05:35:48;4.50;;;4.10;;
37449;SDS011;23309;52.582;13.406;2022-10-17T05:38:16;4.97;;;4.00;;
37449;SDS011;23309;52.582;13.406;2022-10-17T05:40:43;4.07;;;3.73;;
37449;SDS011;23309;52.582;13.406;2022-10-17T05:43:09;3.77;;;3.47;;
37449;SDS011;23309;52.582;13.406;2022-10-17T05:45:35;5.43;;;3.70;;
37449;SDS011;23309;52.582;13.406;2022-10-17T05:48:01;4.00;;;3.70;;
37449;SDS011;23309;52.582;13.406;2022-10-17T05:50:27;4.20;;;3.60;;
37449;SDS011;23309;52.582;13.406;2022-10-17T05:52:54;6.10;;;3.87;;
37449;SDS011;23309;52.582;13.406;2022-10-17T05:55:22;3.53;;;3.27;;
37449;SDS011;23309;52.582;13.406;2022-10-17T05:57:48;3.80;;;3.43;;
37449;SDS011;23309;52.582;13.406;2022-10-17T06:00:15;4.57;;;3.33;;
37449;SDS011;23309;52.582;13.406;2022-10-17T06:02:42;3.67;;;3.37;;
37449;SDS011;23309;52.582;13.406;2022-10-17T06:05:09;4.20;;;3.30;;
37449;SDS011;23309;52.582;13.406;2022-10-17T06:07:36;4.07;;;3.67;;
37449;SDS011;23309;52.582;13.406;2022-10-17T06:10:02;4.07;;;3.50;;
37449;SDS011;23309;52.582;13.406;2022-10-17T06:12:32;4.20;;;3.30;;
37449;SDS011;23309;52.582;13.406;2022-10-17T06:14:58;4.60;;;3.90;;
37449;SDS011;23309;52.582;13.406;2022-10-17T06:17:25;3.47;;;3.17;;
37449;SDS011;23309;52.582;13.406;2022-10-17T06:19:51;3.63;;;3.33;;
37449;SDS011;23309;52.582;13.406;2022-10-17T06:22:17;5.17;;;3.80;;
37449;SDS011;23309;52.582;13.406;2022-10-17T06:24:43;3.73;;;3.40;;
37449;SDS011;23309;52.582;13.406;2022-10-17T06:27:09;6.27;;;3.20;;
37449;SDS011;23309;52.582;13.406;2022-10-17T06:29:38;4.87;;;3.87;;
37449;SDS011;23309;52.582;13.406;2022-10-17T06:32:04;3.97;;;3.50;;
37449;SDS011;23309;52.582;13.406;2022-10-17T06:34:31;5.00;;;3.80;;
37449;SDS011;23309;52.582;13.406;2022-10-17T06:36:57;4.13;;;3.47;;
37449;SDS011;23309;52.582;13.406;2022-10-17T06:39:23;3.80;;;3.50;;
37449;SDS011;23309;52.582;13.406;2022-10-17T06:41:49;7.33;;;3.50;;
37449;SDS011;23309;52.582;13.406;2022-10-17T06:44:15;3.80;;;3.40;;
37449;SDS011;23309;52.582;13.406;2022-10-17T06:46:46;8.73;;;3.43;;
37449;SDS011;23309;52.582;13.406;2022-10-17T06:49:12;4.47;;;4.07;;
37449;SDS011;23309;52.582;13.406;2022-10-17T06:51:39;5.07;;;4.10;;
37449;SDS011;23309;52.582;13.406;2022-10-17T06:54:05;10.13;;;3.37;;
37449;SDS011;23309;52.582;13.406;2022-10-17T06:56:31;5.93;;;3.87;;
37449;SDS011;23309;52.582;13.406;2022-10-17T06:58:57;12.33;;;3.77;;
37449;SDS011;23309;52.582;13.406;2022-10-17T07:01:23;5.40;;;3.30;;
37449;SDS011;23309;52.582;13.406;2022-10-17T07:03:52;4.57;;;3.70;;
37449;SDS011;23309;52.582;13.406;2022-10-17T07:06:18;8.50;;;3.90;;
37449;SDS011;23309;52.582;13.406;2022-10-17T07:08:44;8.80;;;3.83;;
37449;SDS011;23309;52.582;13.406;2022-10-17T07:11:11;5.40;;;3.87;;
37449;SDS011;23309;52.582;13.406;2022-10-17T07:13:39;4.83;;;4.13;;
37449;SDS011;23309;52.582;13.406;2022-10-17T07:16:05;6.57;;;3.50;;
37449;SDS011;23309;52.582;13.406;2022-10-17T07:18:32;5.30;;;3.73;;
37449;SDS011;23309;52.582;13.406;2022-10-17T07:21:01;5.50;;;3.27;;
37449;SDS011;23309;52.582;13.406;2022-10-17T07:23:28;4.90;;;3.30;;
37449;SDS011;23309;52.582;13.406;2022-10-17T07:25:57;4.90;;;3.13;;
37449;SDS011;23309;52.582;13.406;2022-10-17T07:28:24;5.73;;;3.60;;
37449;SDS011;23309;52.582;13.406;2022-10-17T07:30:51;5.17;;;3.10;;
37449;SDS011;23309;52.582;13.406;2022-10-17T07:33:17;7.97;;;3.30;;
37449;SDS011;23309;52.582;13.406;2022-10-17T07:35:43;6.10;;;3.80;;
37449;SDS011;23309;52.582;13.406;2022-10-17T07:38:11;8.07;;;3.57;;
37449;SDS011;23309;52.582;13.406;2022-10-17T07:40:38;4.87;;;3.07;;
37449;SDS011;23309;52.582;13.406;2022-10-17T07:43:04;7.40;;;3.77;;
37449;SDS011;23309;52.582;13.406;2022-10-17T07:45:30;8.30;;;3.83;;
37449;SDS011;23309;52.582;13.406;2022-10-17T07:47:56;3.90;;;3.10;;
37449;SDS011;23309;52.582;13.406;2022-10-17T07:50:22;18.47;;;3.33;;
37449;SDS011;23309;52.582;13.406;2022-10-17T07:52:49;8.47;;;3.50;;
37449;SDS011;23309;52.582;13.406;2022-10-17T07:55:18;4.47;;;3.20;;
37449;SDS011;23309;52.582;13.406;2022-10-17T07:57:45;5.33;;;3.20;;
37449;SDS011;23309;52.582;13.406;2022-10-17T08:00:11;3.20;;;2.90;;
37449;SDS011;23309;52.582;13.406;2022-10-17T08:02:38;6.30;;;3.13;;
37449;SDS011;23309;52.582;13.406;2022-10-17T08:05:04;6.13;;;3.50;;
37449;SDS011;23309;52.582;13.406;2022-10-17T08:07:31;3.40;;;3.10;;
37449;SDS011;23309;52.582;13.406;2022-10-17T08:09:57;9.20;;;3.17;;
37449;SDS011;23309;52.582;13.406;2022-10-17T08:12:26;5.20;;;3.10;;
37449;SDS011;23309;52.582;13.406;2022-10-17T08:14:52;4.63;;;3.60;;
37449;SDS011;23309;52.582;13.406;2022-10-17T08:17:18;3.70;;;3.30;;
37449;SDS011;23309;52.582;13.406;2022-10-17T08:19:45;4.53;;;3.10;;
37449;SDS011;23309;52.582;13.406;2022-10-17T08:22:11;5.50;;;2.90;;
37449;SDS011;23309;52.582;13.406;2022-10-17T08:24:37;3.47;;;2.70;;
37449;SDS011;23309;52.582;13.406;2022-10-17T08:27:03;11.43;;;3.40;;
37449;SDS011;23309;52.582;13.406;2022-10-17T08:29:32;5.73;;;3.40;;
37449;SDS011;23309;52.582;13.406;2022-10-17T08:31:58;6.83;;;3.40;;
37449;SDS011;23309;52.582;13.406;2022-10-17T08:34:24;5.17;;;2.80;;
37449;SDS011;23309;52.582;13.406;2022-10-17T08:36:50;7.90;;;3.40;;
37449;SDS011;23309;52.582;13.406;2022-10-17T08:39:16;3.40;;;3.10;;
37449;SDS011;23309;52.582;13.406;2022-10-17T08:41:46;3.60;;;3.10;;
37449;SDS011;23309;52.582;13.406;2022-10-17T08:44:25;6.63;;;3.30;;
37449;SDS011;23309;52.582;13.406;2022-10-17T08:47:10;3.37;;;3.00;;
37449;SDS011;23309;52.582;13.406;2022-10-17T08:49:41;5.80;;;3.30;;
37449;SDS011;23309;52.582;13.406;2022-10-17T08:52:15;6.27;;;3.37;;
37449;SDS011;23309;52.582;13.406;2022-10-17T08:54:52;12.27;;;3.37;;
37449;SDS011;23309;52.582;13.406;2022-10-17T08:57:18;4.57;;;3.17;;
37449;SDS011;23309;52.582;13.406;2022-10-17T08:59:48;4.43;;;3.10;;
37449;SDS011;23309;52.582;13.406;2022-10-17T09:05:14;5.70;;;3.53;;
37449;SDS011;23309;52.582;13.406;2022-10-17T09:07:57;8.03;;;3.27;;
37449;SDS011;23309;52.582;13.406;2022-10-17T09:10:39;4.53;;;3.10;;
37449;SDS011;23309;52.582;13.406;2022-10-17T09:13:23;9.53;;;3.50;;
37449;SDS011;23309;52.582;13.406;2022-10-17T09:19:11;4.60;;;3.20;;
37449;SDS011;23309;52.582;13.406;2022-10-17T09:21:47;4.80;;;3.03;;
37449;SDS011;23309;52.582;13.406;2022-10-17T09:24:19;3.83;;;2.77;;
37449;SDS011;23309;52.582;13.406;2022-10-17T09:26:52;3.20;;;2.90;;
37449;SDS011;23309;52.582;13.406;2022-10-17T09:29:22;4.30;;;3.43;;
37449;SDS011;23309;52.582;13.406;2022-10-17T09:31:56;4.30;;;2.93;;
37449;SDS011;23309;52.582;13.406;2022-10-17T09:34:27;9.40;;;4.03;;
37449;SDS011;23309;52.582;13.406;2022-10-17T09:36:56;9.90;;;3.00;;
37449;SDS011;23309;52.582;13.406;2022-10-17T09:39:23;3.93;;;2.90;;
37449;SDS011;23309;52.582;13.406;2022-10-17T09:41:51;5.33;;;3.30;;
37449;SDS011;23309;52.582;13.406;2022-10-17T09:44:21;5.93;;;2.90;;
37449;SDS011;23309;52.582;13.406;2022-10-17T09:47:11;7.10;;;3.13;;
37449;SDS011;23309;52.582;13.406;2022-10-17T09:49:47;5.90;;;3.03;;
37449;SDS011;23309;52.582;13.406;2022-10-17T09:52:16;7.70;;;3.20;;
37449;SDS011;23309;52.582;13.406;2022-10-17T09:54:45;8.07;;;3.00;;
37449;SDS011;23309;52.582;13.406;2022-10-17T09:57:14;5.63;;;3.00;;
37449;SDS011;23309;52.582;13.406;2022-10-17T09:59:43;5.40;;;2.93;;
37449;SDS011;23309;52.582;13.406;2022-10-17T10:02:18;4.33;;;3.10;;
37449;SDS011;23309;52.582;13.406;2022-10-17T10:04:54;6.77;;;3.20;;
37449;SDS011;23309;52.582;13.406;2022-10-17T10:07:23;6.60;;;3.20;;
37449;SDS011;23309;52.582;13.406;2022-10-17T10:09:50;16.13;;;3.13;;
37449;SDS011;23309;52.582;13.406;2022-10-17T10:12:18;4.27;;;2.97;;
37449;SDS011;23309;52.582;13.406;2022-10-17T10:14:47;4.23;;;2.77;;
37449;SDS011;23309;52.582;13.406;2022-10-17T10:20:23;4.17;;;3.00;;
37449;SDS011;23309;52.582;13.406;2022-10-17T10:23:09;4.53;;;2.90;;
37449;SDS011;23309;52.582;13.406;2022-10-17T10:25:47;5.50;;;2.97;;
37449;SDS011;23309;52.582;13.406;2022-10-17T10:28:18;9.20;;;3.30;;
37449;SDS011;23309;52.582;13.406;2022-10-17T10:30:46;5.60;;;3.03;;
37449;SDS011;23309;52.582;13.406;2022-10-17T10:33:20;3.37;;;3.00;;
37449;SDS011;23309;52.582;13.406;2022-10-17T10:35:52;3.50;;;2.53;;
37449;SDS011;23309;52.582;13.406;2022-10-17T10:38:22;10.47;;;2.93;;
37449;SDS011;23309;52.582;13.406;2022-10-17T10:40:50;7.10;;;3.00;;
37449;SDS011;23309;52.582;13.406;2022-10-17T10:43:21;5.40;;;2.80;;
37449;SDS011;23309;52.582;13.406;2022-10-17T10:45:55;4.30;;;2.80;;
37449;SDS011;23309;52.582;13.406;2022-10-17T10:48:24;8.70;;;3.03;;
37449;SDS011;23309;52.582;13.406;2022-10-17T10:50:55;3.70;;;2.50;;
37449;SDS011;23309;52.582;13.406;2022-10-17T10:53:28;8.67;;;2.97;;
37449;SDS011;23309;52.582;13.406;2022-10-17T10:56:10;5.17;;;2.60;;
37449;SDS011;23309;52.582;13.406;2022-10-17T10:58:46;4.70;;;2.90;;
37449;SDS011;23309;52.582;13.406;2022-10-17T11:01:20;4.77;;;2.77;;
37449;SDS011;23309;52.582;13.406;2022-10-17T11:04:11;4.33;;;2.67;;
37449;SDS011;23309;52.582;13.406;2022-10-17T11:06:52;9.13;;;2.73;;
37449;SDS011;23309;52.582;13.406;2022-10-17T11:09:31;4.37;;;2.90;;
37449;SDS011;23309;52.582;13.406;2022-10-17T11:12:10;11.43;;;2.70;;
37449;SDS011;23309;52.582;13.406;2022-10-17T11:14:44;4.10;;;2.63;;
37449;SDS011;23309;52.582;13.406;2022-10-17T11:17:18;9.70;;;3.10;;
37449;SDS011;23309;52.582;13.406;2022-10-17T11:19:58;6.13;;;3.10;;
37449;SDS011;23309;52.582;13.406;2022-10-17T11:22:37;6.30;;;2.67;;
37449;SDS011;23309;52.582;13.406;2022-10-17T11:25:13;5.20;;;3.10;;
37449;SDS011;23309;52.582;13.406;2022-10-17T11:27:52;8.13;;;2.80;;
37449;SDS011;23309;52.582;13.406;2022-10-17T11:30:18;5.80;;;3.17;;
37449;SDS011;23309;52.582;13.406;2022-10-17T11:32:46;4.93;;;2.60;;
37449;SDS011;23309;52.582;13.406;2022-10-17T11:35:20;6.00;;;2.63;;
37449;SDS011;23309;52.582;13.406;2022-10-17T11:37:52;5.97;;;2.90;;
37449;SDS011;23309;52.582;13.406;2022-10-17T11:40:28;5.00;;;3.33;;
37449;SDS011;23309;52.582;13.406;2022-10-17T11:42:58;3.67;;;2.63;;
37449;SDS011;23309;52.582;13.406;2022-10-17T11:45:34;5.00;;;2.67;;
37449;SDS011;23309;52.582;13.406;2022-10-17T11:48:09;2.93;;;2.50;;
37449;SDS011;23309;52.582;13.406;2022-10-17T11:50:44;3.97;;;2.30;;
37449;SDS011;23309;52.582;13.406;2022-10-17T11:53:16;4.23;;;2.40;;
37449;SDS011;23309;52.582;13.406;2022-10-17T11:55:46;6.63;;;2.60;;
37449;SDS011;23309;52.582;13.406;2022-10-17T11:58:17;6.70;;;3.07;;
37449;SDS011;23309;52.582;13.406;2022-10-17T12:01:03;6.83;;;2.80;;
37449;SDS011;23309;52.582;13.406;2022-10-17T12:03:41;5.20;;;2.60;;
37449;SDS011;23309;52.582;13.406;2022-10-17T12:06:23;3.60;;;2.43;;
37449;SDS011;23309;52.582;13.406;2022-10-17T12:09:15;8.13;;;2.70;;
37449;SDS011;23309;52.582;13.406;2022-10-17T12:11:49;3.07;;;2.80;;
37449;SDS011;23309;52.582;13.406;2022-10-17T12:14:35;6.53;;;3.10;;
37449;SDS011;23309;52.582;13.406;2022-10-17T12:17:04;5.00;;;3.47;;
37449;SDS011;23309;52.582;13.406;2022-10-17T12:19:51;5.00;;;2.63;;
37449;SDS011;23309;52.582;13.406;2022-10-17T12:22:24;4.67;;;2.80;;
37449;SDS011;23309;52.582;13.406;2022-10-17T12:24:57;5.10;;;2.90;;
37449;SDS011;23309;52.582;13.406;2022-10-17T12:27:36;2.60;;;2.40;;
37449;SDS011;23309;52.582;13.406;2022-10-17T12:30:06;2.70;;;2.50;;
37449;SDS011;23309;52.582;13.406;2022-10-17T12:32:53;3.37;;;2.50;;
37449;SDS011;23309;52.582;13.406;2022-10-17T12:35:31;3.87;;;2.30;;
37449;SDS011;23309;52.582;13.406;2022-10-17T12:40:57;4.83;;;2.67;;
37449;SDS011;23309;52.582;13.406;2022-10-17T12:43:35;4.53;;;2.90;;
37449;SDS011;23309;52.582;13.406;2022-10-17T12:55:22;3.20;;;2.50;;
37449;SDS011;23309;52.582;13.406;2022-10-17T12:57:51;6.70;;;2.90;;
37449;SDS011;23309;52.582;13.406;2022-10-17T13:00:22;9.40;;;2.77;;
37449;SDS011;23309;52.582;13.406;2022-10-17T13:02:59;3.93;;;3.10;;
37449;SDS011;23309;52.582;13.406;2022-10-17T13:05:32;4.53;;;3.17;;
37449;SDS011;23309;52.582;13.406;2022-10-17T13:08:03;5.37;;;2.77;;
37449;SDS011;23309;52.582;13.406;2022-10-17T13:10:36;4.20;;;2.60;;
37449;SDS011;23309;52.582;13.406;2022-10-17T13:13:05;6.23;;;2.83;;
37449;SDS011;23309;52.582;13.406;2022-10-17T13:15:39;7.30;;;3.10;;
37449;SDS011;23309;52.582;13.406;2022-10-17T13:18:15;6.37;;;3.10;;
37449;SDS011;23309;52.582;13.406;2022-10-17T13:20:52;4.70;;;3.00;;
37449;SDS011;23309;52.582;13.406;2022-10-17T13:23:21;9.43;;;2.77;;
37449;SDS011;23309;52.582;13.406;2022-10-17T13:26:01;4.00;;;2.70;;
37449;SDS011;23309;52.582;13.406;2022-10-17T13:28:59;4.27;;;2.43;;
37449;SDS011;23309;52.582;13.406;2022-10-17T13:31:28;5.73;;;2.77;;
37449;SDS011;23309;52.582;13.406;2022-10-17T13:33:56;6.07;;;3.13;;
37449;SDS011;23309;52.582;13.406;2022-10-17T13:36:25;6.87;;;3.40;;
37449;SDS011;23309;52.582;13.406;2022-10-17T13:38:53;6.03;;;3.10;;
37449;SDS011;23309;52.582;13.406;2022-10-17T13:41:24;4.47;;;3.10;;
37449;SDS011;23309;52.582;13.406;2022-10-17T13:43:53;4.80;;;3.10;;
37449;SDS011;23309;52.582;13.406;2022-10-17T13:46:24;5.20;;;3.17;;
37449;SDS011;23309;52.582;13.406;2022-10-17T13:48:53;6.93;;;3.33;;
37449;SDS011;23309;52.582;13.406;2022-10-17T13:51:21;8.07;;;3.00;;
37449;SDS011;23309;52.582;13.406;2022-10-17T13:53:49;4.83;;;3.10;;
37449;SDS011;23309;52.582;13.406;2022-10-17T13:56:17;6.10;;;3.40;;
37449;SDS011;23309;52.582;13.406;2022-10-17T13:58:48;7.00;;;2.70;;
37449;SDS011;23309;52.582;13.406;2022-10-17T14:01:17;4.40;;;2.53;;
37449;SDS011;23309;52.582;13.406;2022-10-17T14:03:44;4.80;;;2.80;;
37449;SDS011;23309;52.582;13.406;2022-10-17T14:06:13;3.63;;;2.97;;
37449;SDS011;23309;52.582;13.406;2022-10-17T14:08:47;4.60;;;3.23;;
37449;SDS011;23309;52.582;13.406;2022-10-17T14:11:22;7.33;;;2.93;;
37449;SDS011;23309;52.582;13.406;2022-10-17T14:13:56;5.70;;;3.13;;
37449;SDS011;23309;52.582;13.406;2022-10-17T14:16:25;3.53;;;3.13;;
37449;SDS011;23309;52.582;13.406;2022-10-17T14:18:58;4.80;;;2.90;;
37449;SDS011;23309;52.582;13.406;2022-10-17T14:21:25;4.77;;;3.00;;
37449;SDS011;23309;52.582;13.406;2022-10-17T14:23:52;5.93;;;2.90;;
37449;SDS011;23309;52.582;13.406;2022-10-17T14:26:45;5.43;;;3.00;;
37449;SDS011;23309;52.582;13.406;2022-10-17T14:29:20;5.40;;;2.83;;
37449;SDS011;23309;52.582;13.406;2022-10-17T14:31:49;4.17;;;2.80;;
37449;SDS011;23309;52.582;13.406;2022-10-17T14:34:22;9.20;;;3.17;;
37449;SDS011;23309;52.582;13.406;2022-10-17T14:36:53;4.47;;;3.10;;
37449;SDS011;23309;52.582;13.406;2022-10-17T14:39:21;6.43;;;3.23;;
37449;SDS011;23309;52.582;13.406;2022-10-17T14:41:51;4.27;;;3.10;;
37449;SDS011;23309;52.582;13.406;2022-10-17T14:44:22;7.80;;;3.00;;
37449;SDS011;23309;52.582;13.406;2022-10-17T14:46:53;6.53;;;3.13;;
37449;SDS011;23309;52.582;13.406;2022-10-17T14:49:31;4.77;;;2.63;;
37449;SDS011;23309;52.582;13.406;2022-10-17T14:52:10;18.97;;;2.93;;
37449;SDS011;23309;52.582;13.406;2022-10-17T14:54:49;5.07;;;3.13;;
37449;SDS011;23309;52.582;13.406;2022-10-17T14:57:16;5.43;;;3.27;;
37449;SDS011;23309;52.582;13.406;2022-10-17T14:59:49;4.90;;;2.77;;
37449;SDS011;23309;52.582;13.406;2022-10-17T15:02:15;6.30;;;3.20;;
37449;SDS011;23309;52.582;13.406;2022-10-17T15:04:41;5.43;;;3.00;;
37449;SDS011;23309;52.582;13.406;2022-10-17T15:07:09;6.07;;;2.70;;
37449;SDS011;23309;52.582;13.406;2022-10-17T15:09:39;6.43;;;3.90;;
37449;SDS011;23309;52.582;13.406;2022-10-17T15:12:06;6.27;;;3.10;;
37449;SDS011;23309;52.582;13.406;2022-10-17T15:14:37;8.90;;;3.43;;
37449;SDS011;23309;52.582;13.406;2022-10-17T15:17:07;4.00;;;2.70;;